Time;durP1;ratioP1;P1;durP2;ratioP2;P2;SDS_P1;SDS_P2;PMS_P1;PMS_P2;Temp;Humidity;BMP_temperature;BMP_pressure;BME280_temperature;BME280_humidity;BME280_pressure;Samples;Min_cycle;Max_cycle;Signal;HPM_P1;HPM_P2
2020/12/02 00:02:32;;;;;;;31.77;17.38;;;;;;;6.84;100.00;101505.13;5024961;28;20040;-72
2020/12/02 00:05:00;;;;;;;30.95;16.88;;;;;;;6.84;100.00;101499.81;5032831;28;20064;-72
2020/12/02 00:07:31;;;;;;;30.60;17.10;;;;;;;6.92;100.00;101507.50;5027780;28;20038;-71
2020/12/02 00:09:57;;;;;;;37.55;17.70;;;;;;;6.95;100.00;101510.06;5031764;28;20518;-71
2020/12/02 00:12:23;;;;;;;38.20;18.05;;;;;;;6.90;100.00;101502.25;5028410;28;20026;-72
2020/12/02 00:14:49;;;;;;;33.10;17.63;;;;;;;6.84;100.00;101506.94;5061415;28;20096;-72
2020/12/02 00:17:19;;;;;;;35.90;17.98;;;;;;;6.83;100.00;101505.19;5029731;28;20461;-72
2020/12/02 00:19:46;;;;;;;33.17;17.58;;;;;;;6.85;100.00;101503.34;5025310;28;20113;-72
2020/12/02 00:22:16;;;;;;;32.33;17.75;;;;;;;6.85;100.00;101503.34;5026058;28;20120;-72
2020/12/02 00:24:43;;;;;;;34.15;16.63;;;;;;;6.86;100.00;101499.72;5060074;28;20048;-72
2020/12/02 00:27:16;;;;;;;32.70;17.80;;;;;;;6.82;100.00;101492.75;5031074;28;20029;-72
2020/12/02 00:29:42;;;;;;;30.10;16.92;;;;;;;6.83;100.00;101495.38;5027082;28;20044;-72
2020/12/02 00:32:19;;;;;;;39.08;17.45;;;;;;;6.85;100.00;101498.00;5029914;28;20068;-72
2020/12/02 00:34:45;;;;;;;33.83;17.60;;;;;;;6.83;100.00;101494.50;5031108;28;20095;-72
2020/12/02 00:37:12;;;;;;;35.90;17.73;;;;;;;6.84;100.00;101496.25;5030572;28;20037;-72
2020/12/02 00:39:38;;;;;;;37.95;19.23;;;;;;;6.86;100.00;101494.38;5027891;28;20472;-72
2020/12/02 00:42:03;;;;;;;33.28;17.67;;;;;;;7.04;100.00;101498.16;5032224;28;20037;-71
2020/12/02 00:44:28;;;;;;;29.80;16.23;;;;;;;6.89;100.00;101494.28;5029705;28;20036;-72
2020/12/02 00:46:54;;;;;;;31.83;17.00;;;;;;;6.82;100.00;101501.66;5034993;28;20037;-72
2020/12/02 00:49:19;;;;;;;37.90;17.92;;;;;;;6.82;100.00;101490.09;5028688;28;20025;-72
2020/12/02 00:51:45;;;;;;;33.03;17.02;;;;;;;6.81;100.00;101491.00;5030198;28;20079;-72
2020/12/02 00:54:10;;;;;;;33.65;17.85;;;;;;;6.83;100.00;101495.38;5030189;28;20029;-72
2020/12/02 00:56:40;;;;;;;33.72;17.88;;;;;;;6.85;100.00;101498.00;5028557;28;20021;-72
2020/12/02 00:59:16;;;;;;;37.10;19.15;;;;;;;6.84;100.00;101496.25;5034457;28;20162;-72
2020/12/02 01:02:14;;;;;;;34.33;18.88;;;;;;;6.79;100.00;101498.19;5030685;28;20022;-72
2020/12/02 01:04:44;;;;;;;36.88;19.48;;;;;;;6.78;100.00;101491.16;5028117;28;20037;-72
2020/12/02 01:07:10;;;;;;;40.70;19.30;;;;;;;6.87;100.00;101490.78;5030037;28;20025;-72
2020/12/02 01:09:36;;;;;;;46.75;20.35;;;;;;;6.86;100.00;101495.25;5031275;28;20037;-72
2020/12/02 01:12:02;;;;;;;39.92;20.17;;;;;;;6.82;100.00;101493.63;5032672;28;20087;-72
2020/12/02 01:14:29;;;;;;;44.40;20.20;;;;;;;6.80;100.00;101490.13;5053410;28;20498;-72
2020/12/02 01:16:57;;;;;;;38.83;21.23;;;;;;;6.80;100.00;101489.28;5035367;28;20037;-72
2020/12/02 01:19:27;;;;;;;48.22;21.73;;;;;;;6.79;100.00;101490.19;5022802;28;20033;-72
2020/12/02 01:22:05;;;;;;;45.25;22.45;;;;;;;6.76;100.00;101479.66;5019589;28;20029;-72
2020/12/02 01:24:36;;;;;;;42.53;21.58;;;;;;;6.75;100.00;101481.44;5024214;28;20033;-72
2020/12/02 01:27:12;;;;;;;47.70;23.33;;;;;;;6.72;100.00;101480.69;5020622;28;20095;-72
2020/12/02 01:29:38;;;;;;;53.08;22.42;;;;;;;6.78;100.00;101485.81;5028350;28;20684;-72
2020/12/02 01:32:04;;;;;;;49.20;22.48;;;;;;;6.74;100.00;101484.16;5032515;28;20026;-72
2020/12/02 01:34:30;;;;;;;44.40;22.00;;;;;;;6.70;100.00;101493.22;5031737;28;20030;-72
2020/12/02 01:37:04;;;;;;;46.13;23.33;;;;;;;6.76;100.00;101493.00;5030213;28;20507;-72
2020/12/02 01:39:32;;;;;;;48.30;22.80;;;;;;;6.76;100.00;101491.19;5029730;28;20047;-72
2020/12/02 01:41:57;;;;;;;43.78;22.02;;;;;;;6.75;100.00;101486.78;5032932;28;20029;-72
2020/12/02 01:44:24;;;;;;;46.97;22.33;;;;;;;6.70;100.00;101495.88;5031791;28;20451;-72
2020/12/02 01:47:06;;;;;;;45.08;21.92;;;;;;;6.74;100.00;101500.16;5028386;28;20072;-72
2020/12/02 01:50:00;;;;;;;47.65;22.55;;;;;;;6.65;100.00;101490.72;5035074;28;20489;-72
2020/12/02 01:53:03;;;;;;;46.65;21.40;;;;;;;6.63;100.00;101494.34;5028231;28;20037;-72
2020/12/02 01:55:37;;;;;;;45.92;22.98;;;;;;;6.65;100.00;101490.72;5036116;28;20025;-72
2020/12/02 01:58:12;;;;;;;48.50;23.08;;;;;;;6.64;100.00;101494.31;5043410;28;20033;-72
2020/12/02 02:00:41;;;;;;;44.40;21.42;;;;;;;6.61;100.00;101490.84;5028579;28;20036;-72
2020/12/02 02:03:15;;;;;;;47.88;22.55;;;;;;;6.63;100.00;101489.00;5028530;28;20450;-72
2020/12/02 02:06:01;;;;;;;46.90;22.05;;;;;;;6.64;100.00;101493.44;5036660;28;20116;-72
2020/12/02 02:08:33;;;;;;;44.13;21.02;;;;;;;6.64;100.00;101488.97;5031176;28;20029;-72
2020/12/02 02:11:03;;;;;;;50.28;23.15;;;;;;;6.63;100.00;101483.69;5033577;28;20025;-72
2020/12/02 02:13:37;;;;;;;46.58;22.17;;;;;;;6.63;100.00;101479.22;5033350;28;20052;-72
2020/12/02 02:16:11;;;;;;;47.08;22.65;;;;;;;6.65;100.00;101487.19;5027970;28;20053;-72
2020/12/02 02:18:37;;;;;;;50.50;23.75;;;;;;;6.79;100.00;101471.50;5029032;28;20059;-72
2020/12/02 02:21:07;;;;;;;46.72;23.65;;;;;;;6.69;100.00;101481.66;5034474;28;20108;-72
2020/12/02 02:23:32;;;;;;;50.13;23.20;;;;;;;6.66;100.00;101486.25;5037143;28;20025;-72
2020/12/02 02:26:17;;;;;;;49.60;22.80;;;;;;;6.62;100.00;101482.81;5026265;28;20029;-72
2020/12/02 02:28:49;;;;;;;48.15;22.48;;;;;;;6.61;100.00;101477.50;5027290;28;20064;-72
2020/12/02 02:31:19;;;;;;;50.80;22.83;;;;;;;6.62;100.00;101476.59;5030173;28;20044;-72
2020/12/02 02:33:47;;;;;;;51.78;24.17;;;;;;;6.59;100.00;101471.38;5040301;28;20103;-72
2020/12/02 02:36:19;;;;;;;50.15;23.75;;;;;;;6.59;100.00;101474.06;5030436;28;20475;-72
2020/12/02 02:38:44;;;;;;;48.28;23.52;;;;;;;6.57;100.00;101474.09;5030718;28;20455;-72
2020/12/02 02:41:10;;;;;;;54.80;23.92;;;;;;;6.58;100.00;101481.19;5027568;28;20049;-72
2020/12/02 02:43:37;;;;;;;47.58;22.80;;;;;;;6.58;100.00;101473.19;5028104;28;20022;-72
2020/12/02 02:46:03;;;;;;;47.92;23.25;;;;;;;6.62;100.00;101476.59;5032132;28;20107;-72
2020/12/02 02:48:29;;;;;;;45.33;23.20;;;;;;;6.63;100.00;101475.69;5039725;28;20499;-72
2020/12/02 02:50:54;;;;;;;47.28;22.83;;;;;;;6.62;100.00;101469.47;5032942;28;20480;-72
2020/12/02 02:53:22;;;;;;;54.13;23.38;;;;;;;6.64;100.00;101480.09;5027046;28;20385;-72
2020/12/02 02:55:48;;;;;;;43.25;21.13;;;;;;;6.63;100.00;101467.69;5027391;28;20041;-72
2020/12/02 02:58:14;;;;;;;49.05;23.92;;;;;;;6.63;100.00;101470.34;5026590;28;20057;-72
2020/12/02 03:00:41;;;;;;;54.55;24.40;;;;;;;6.64;100.00;101477.41;5029076;28;20134;-72
2020/12/02 03:03:10;;;;;;;47.65;23.00;;;;;;;6.64;100.00;101470.28;5030133;28;20703;-72
2020/12/02 03:05:37;;;;;;;58.47;24.65;;;;;;;6.64;100.00;101470.28;5028707;28;20029;-72
2020/12/02 03:08:07;;;;;;;52.72;23.58;;;;;;;6.64;100.00;101472.97;5027458;28;20025;-72
2020/12/02 03:10:36;;;;;;;48.28;21.98;;;;;;;6.65;100.00;101473.84;5013838;28;20067;-72
2020/12/02 03:13:47;;;;;;;45.85;22.98;;;;;;;6.66;100.00;101464.91;5026793;28;20036;-72
2020/12/02 03:16:41;;;;;;;49.65;22.23;;;;;;;6.65;100.00;101468.50;5029044;28;20128;-72
2020/12/02 03:19:28;;;;;;;55.15;23.65;;;;;;;6.64;100.00;101467.63;5023840;28;20496;-72
2020/12/02 03:21:57;;;;;;;52.83;24.17;;;;;;;6.66;100.00;101467.56;5030051;28;20036;-72
2020/12/02 03:24:25;;;;;;;52.22;23.52;;;;;;;6.67;100.00;101463.97;5023745;28;20068;-72
2020/12/02 03:26:50;;;;;;;54.80;22.88;;;;;;;6.64;100.00;101466.75;5027915;28;20033;-72
2020/12/02 03:29:18;;;;;;;49.65;23.52;;;;;;;6.63;100.00;101467.69;5032895;28;20380;-72
2020/12/02 03:31:43;;;;;;;50.80;23.98;;;;;;;6.63;100.00;101465.00;5028436;28;20029;-72
2020/12/02 03:34:15;;;;;;;54.05;24.02;;;;;;;6.64;100.00;101461.41;5036723;28;20037;-72
2020/12/02 03:36:41;;;;;;;51.80;23.77;;;;;;;6.64;100.00;101467.63;5060499;28;20042;-72
2020/12/02 03:39:10;;;;;;;51.92;24.20;;;;;;;6.65;100.00;101465.84;5035544;28;20071;-72
2020/12/02 03:41:38;;;;;;;54.55;24.38;;;;;;;6.65;100.00;101460.50;5027213;28;20628;-72
2020/12/02 03:44:04;;;;;;;51.95;23.83;;;;;;;6.65;100.00;101457.81;5028420;28;20033;-72
2020/12/02 03:46:29;;;;;;;50.92;23.17;;;;;;;6.66;100.00;101459.56;5034393;28;20825;-72
2020/12/02 03:48:55;;;;;;;48.53;21.38;;;;;;;6.65;100.00;101457.81;5029494;28;20056;-72
2020/12/02 03:51:20;;;;;;;47.03;22.50;;;;;;;6.65;100.00;101457.81;5037157;28;20554;-72
2020/12/02 03:53:46;;;;;;;47.63;22.65;;;;;;;6.64;100.00;101456.94;5032228;28;20036;-72
2020/12/02 03:56:14;;;;;;;48.17;22.58;;;;;;;6.65;100.00;101452.50;5033738;28;20025;-72
2020/12/02 03:58:40;;;;;;;46.33;22.33;;;;;;;6.64;100.00;101450.75;5036392;28;20045;-72
2020/12/02 04:01:06;;;;;;;53.92;23.65;;;;;;;6.64;100.00;101446.28;5029909;28;20036;-72
2020/12/02 04:03:32;;;;;;;51.05;23.92;;;;;;;6.63;100.00;101454.34;5032026;28;20041;-72
2020/12/02 04:05:57;;;;;;;52.25;23.20;;;;;;;6.64;100.00;101450.75;5030032;28;20120;-72
2020/12/02 04:08:22;;;;;;;51.30;23.77;;;;;;;6.61;100.00;101450.84;5015148;28;20175;-72
2020/12/02 04:10:48;;;;;;;50.92;24.00;;;;;;;6.61;100.00;101442.84;5029094;28;20047;-72
2020/12/02 04:13:13;;;;;;;72.40;34.25;;;;;;;6.61;100.00;101443.72;5030579;28;20029;-72
2020/12/02 04:15:39;;;;;;;78.13;36.67;;;;;;;6.61;100.00;101445.50;5032870;28;20033;-72
2020/12/02 04:18:04;;;;;;;75.18;35.67;;;;;;;6.61;100.00;101434.84;5031669;28;20038;-72
2020/12/02 04:20:30;;;;;;;55.80;27.42;;;;;;;6.62;100.00;101434.78;5039642;28;20037;-72
2020/12/02 04:22:55;;;;;;;56.30;26.40;;;;;;;6.60;100.00;101434.00;5031069;28;20033;-72
2020/12/02 04:25:23;;;;;;;50.97;24.60;;;;;;;6.61;100.00;101440.16;5029786;28;20381;-72
2020/12/02 04:27:50;;;;;;;55.38;25.88;;;;;;;6.61;100.00;101442.84;5029018;28;20033;-72
2020/12/02 04:30:16;;;;;;;50.83;23.77;;;;;;;6.60;100.00;101444.66;5035827;28;20030;-72
2020/12/02 04:32:42;;;;;;;55.72;24.77;;;;;;;6.61;100.00;101437.50;5028917;28;20033;-72
2020/12/02 04:35:08;;;;;;;47.63;22.52;;;;;;;6.60;100.00;101433.13;5031663;28;20387;-72
2020/12/02 04:37:35;;;;;;;50.88;23.55;;;;;;;6.61;100.00;101432.16;5031018;28;20916;-72
2020/12/02 04:40:01;;;;;;;47.97;22.83;;;;;;;6.60;100.00;101427.78;5030088;28;20083;-72
2020/12/02 04:42:31;;;;;;;47.17;22.52;;;;;;;6.60;100.00;101427.78;5031313;28;20030;-72
2020/12/02 04:44:58;;;;;;;52.25;22.15;;;;;;;6.60;100.00;101433.13;5030071;28;20037;-72
2020/12/02 04:47:36;;;;;;;54.80;24.48;;;;;;;6.61;100.00;101426.84;5029438;28;20400;-72
2020/12/02 04:50:10;;;;;;;50.45;23.05;;;;;;;6.60;100.00;101427.78;5030197;28;20046;-72
2020/12/02 04:52:35;;;;;;;56.95;24.63;;;;;;;6.58;100.00;101429.63;5032686;28;20396;-72
2020/12/02 04:55:01;;;;;;;47.90;22.70;;;;;;;6.57;100.00;101434.09;5028957;28;20041;-72
2020/12/02 04:57:27;;;;;;;43.53;22.00;;;;;;;6.57;100.00;101428.75;5050999;28;20053;-72
2020/12/02 04:59:52;;;;;;;48.65;22.25;;;;;;;6.60;100.00;101435.78;5029819;28;20033;-72
2020/12/02 05:02:27;;;;;;;47.00;23.33;;;;;;;6.61;100.00;101429.50;5048598;28;20060;-72
2020/12/02 05:05:00;;;;;;;49.80;23.35;;;;;;;6.62;100.00;101428.59;5031509;28;20029;-72
2020/12/02 05:07:28;;;;;;;48.40;22.15;;;;;;;6.62;100.00;101431.25;5030485;28;20037;-72
2020/12/02 05:10:08;;;;;;;42.92;20.85;;;;;;;6.63;100.00;101433.00;5029693;28;20072;-72
2020/12/02 05:12:43;;;;;;;46.42;21.52;;;;;;;6.61;100.00;101435.72;5026115;28;20033;-72
2020/12/02 05:15:17;;;;;;;51.22;22.35;;;;;;;6.60;100.00;101438.47;5060559;28;20021;-72
2020/12/02 05:17:44;;;;;;;45.00;21.00;;;;;;;6.57;100.00;101438.56;5029410;28;20033;-72
2020/12/02 05:20:21;;;;;;;46.63;21.30;;;;;;;6.55;100.00;101437.72;5032813;28;20033;-72
2020/12/02 05:22:50;;;;;;;47.42;21.50;;;;;;;6.54;100.00;101433.34;5031925;28;20522;-72
2020/12/02 05:25:27;;;;;;;46.13;21.27;;;;;;;6.53;100.00;101436.94;5028978;28;20563;-72
2020/12/02 05:28:03;;;;;;;44.00;20.25;;;;;;;6.53;100.00;101434.28;5027546;28;20045;-72
2020/12/02 05:30:34;;;;;;;46.85;22.15;;;;;;;6.54;100.00;101441.34;5019289;28;20033;-72
2020/12/02 05:33:10;;;;;;;42.15;20.65;;;;;;;6.55;100.00;101432.41;5065323;28;20388;-72
2020/12/02 05:35:38;;;;;;;47.05;23.13;;;;;;;6.52;100.00;101430.72;5030350;28;20032;-72
2020/12/02 05:38:06;;;;;;;42.40;19.92;;;;;;;6.54;100.00;101428.88;5034029;28;20475;-72
2020/12/02 05:40:32;;;;;;;45.85;21.48;;;;;;;6.49;100.00;101426.34;5028490;28;20059;-72
2020/12/02 05:43:12;;;;;;;43.95;21.60;;;;;;;6.48;100.00;101419.28;5034161;28;20737;-72
2020/12/02 05:45:40;;;;;;;44.92;21.13;;;;;;;6.48;100.00;101416.63;5033269;28;20083;-72
2020/12/02 05:48:16;;;;;;;45.67;21.45;;;;;;;6.48;100.00;101418.44;5024333;28;20037;-72
2020/12/02 05:50:42;;;;;;;43.75;21.05;;;;;;;6.47;100.00;101412.22;5026864;28;20033;-72
2020/12/02 05:53:20;;;;;;;47.60;23.30;;;;;;;6.47;100.00;101414.03;5031422;28;20025;-72
2020/12/02 05:55:47;;;;;;;44.33;21.52;;;;;;;6.46;100.00;101410.50;5026174;28;20168;-72
2020/12/02 05:58:19;;;;;;;44.38;20.67;;;;;;;6.44;100.00;101409.66;5026976;28;20545;-72
2020/12/02 06:00:44;;;;;;;47.95;21.08;;;;;;;6.42;100.00;101408.84;5024758;28;20416;-72
2020/12/02 06:03:11;;;;;;;40.03;20.23;;;;;;;6.43;100.00;101407.03;5028514;28;20029;-72
2020/12/02 06:05:37;;;;;;;51.03;22.50;;;;;;;6.43;100.00;101420.38;5027151;28;20067;-72
2020/12/02 06:08:05;;;;;;;46.38;21.17;;;;;;;6.45;100.00;101413.19;5025857;28;20168;-72
2020/12/02 06:10:42;;;;;;;44.33;20.27;;;;;;;6.44;100.00;101417.66;5026400;28;20053;-72
2020/12/02 06:13:11;;;;;;;43.33;20.27;;;;;;;6.44;100.00;101415.00;5052759;28;20029;-72
2020/12/02 06:15:38;;;;;;;47.65;21.83;;;;;;;6.45;100.00;101408.75;5028203;28;20021;-72
2020/12/02 06:18:21;;;;;;;44.65;21.55;;;;;;;6.44;100.00;101404.31;5035973;28;20444;-72
2020/12/02 06:20:47;;;;;;;47.15;20.30;;;;;;;6.46;100.00;101410.50;5038283;28;20037;-72
2020/12/02 06:23:13;;;;;;;45.03;21.30;;;;;;;6.44;100.00;101412.34;5028390;28;20072;-72
2020/12/02 06:25:52;;;;;;;45.72;19.98;;;;;;;6.45;100.00;101414.06;5035337;28;20164;-72
2020/12/02 06:28:30;;;;;;;47.25;21.65;;;;;;;6.44;100.00;101409.66;5030129;28;20446;-72
2020/12/02 06:31:09;;;;;;;40.47;19.70;;;;;;;6.45;100.00;101403.41;5028354;28;20045;-72
2020/12/02 06:33:41;;;;;;;42.83;22.33;;;;;;;6.45;100.00;101399.88;5039543;28;20044;-72
2020/12/02 06:36:36;;;;;;;49.25;21.25;;;;;;;6.44;100.00;101396.34;5028711;28;20040;-72
2020/12/02 06:39:23;;;;;;;54.45;23.05;;;;;;;6.39;100.00;101400.97;5031902;28;20427;-72
2020/12/02 06:41:48;;;;;;;54.72;23.48;;;;;;;6.39;100.00;101398.28;5035827;28;20036;-72
2020/12/02 06:44:13;;;;;;;51.38;22.15;;;;;;;6.39;100.00;101397.44;5027615;28;20030;-72
2020/12/02 06:46:47;;;;;;;52.85;22.92;;;;;;;6.39;100.00;101395.63;5031533;28;20132;-72
2020/12/02 06:49:12;;;;;;;49.60;22.48;;;;;;;6.40;100.00;101397.38;5050075;28;20069;-72
2020/12/02 06:51:52;;;;;;;50.90;24.58;;;;;;;6.40;100.00;101394.72;5032176;28;20115;-72
2020/12/02 06:54:17;;;;;;;46.25;22.88;;;;;;;6.40;100.00;101399.16;5032289;28;20038;-72
2020/12/02 06:56:42;;;;;;;47.90;22.83;;;;;;;6.39;100.00;101403.63;5026191;28;20034;-72
2020/12/02 06:59:08;;;;;;;47.20;21.67;;;;;;;6.41;100.00;101395.59;5027107;28;20029;-72
2020/12/02 07:01:34;;;;;;;43.92;21.02;;;;;;;6.44;100.00;101401.66;5038726;28;20415;-72
2020/12/02 07:04:06;;;;;;;47.22;22.02;;;;;;;6.40;100.00;101391.16;5036539;28;20025;-72
2020/12/02 07:06:32;;;;;;;43.05;21.08;;;;;;;6.39;100.00;101392.97;5026861;28;20044;-72
2020/12/02 07:09:18;;;;;;;49.47;22.02;;;;;;;6.37;100.00;101392.13;5028616;28;20029;-73
2020/12/02 07:12:01;;;;;;;41.50;21.08;;;;;;;6.38;100.00;101385.88;5025860;28;20064;-72
2020/12/02 07:14:46;;;;;;;;;;;;;;;6.36;100.00;101387.72;5027827;28;20384;-72
2020/12/02 07:17:14;;;;;;;47.40;22.73;;;;;;;6.37;100.00;101388.59;5031190;28;19917;-73
2020/12/02 07:19:42;;;;;;;59.20;24.77;;;;;;;6.36;100.00;101382.41;5025573;28;20549;-72
2020/12/02 07:22:26;;;;;;;49.22;21.50;;;;;;;6.38;100.00;101385.88;5027339;28;20026;-72
2020/12/02 07:24:53;;;;;;;;;;;;;;;6.35;100.00;101387.81;5028852;28;20514;-72
2020/12/02 07:27:21;;;;;;;55.28;24.08;;;;;;;6.34;100.00;101381.59;5034521;28;19921;-73
2020/12/02 07:29:56;;;;;;;61.20;24.73;;;;;;;6.35;100.00;101391.34;5037782;28;20044;-73
2020/12/02 07:32:22;;;;;;;59.22;24.63;;;;;;;6.30;100.00;101382.63;5037536;28;20064;-73
2020/12/02 07:34:47;;;;;;;60.15;24.63;;;;;;;6.30;100.00;101387.06;5034281;28;20029;-72
2020/12/02 07:37:19;;;;;;;60.80;24.02;;;;;;;6.30;100.00;101379.94;5033671;28;20483;-73
2020/12/02 07:40:01;;;;;;;56.20;23.90;;;;;;;6.30;100.00;101390.63;5037992;28;20428;-72
2020/12/02 07:42:36;;;;;;;56.58;23.05;;;;;;;6.30;100.00;101387.94;5025113;28;20825;-72
2020/12/02 07:45:18;;;;;;;50.88;23.10;;;;;;;6.40;100.00;101392.03;5031540;28;20029;-72
2020/12/02 07:48:11;;;;;;;47.65;22.15;;;;;;;6.32;100.00;101386.09;5030806;28;20109;-72
2020/12/02 07:50:44;;;;;;;46.08;21.65;;;;;;;6.31;100.00;101389.69;5028270;28;20029;-72
2020/12/02 07:53:39;;;;;;;49.88;21.98;;;;;;;6.30;100.00;101381.75;5035603;28;20617;-72
2020/12/02 07:56:12;;;;;;;44.03;20.20;;;;;;;6.32;100.00;101386.09;5034504;28;20377;-72
2020/12/02 07:58:42;;;;;;;49.60;21.58;;;;;;;6.31;100.00;101384.38;5032018;28;20056;-72
2020/12/02 08:01:41;;;;;;;45.22;19.67;;;;;;;6.28;100.00;101392.50;5033433;28;20119;-72
2020/12/02 08:04:22;;;;;;;50.42;21.50;;;;;;;6.38;100.00;101388.56;5032082;28;20765;-72
2020/12/02 08:06:58;;;;;;;46.17;21.40;;;;;;;6.29;100.00;101386.22;5031475;28;20033;-72
2020/12/02 08:09:23;;;;;;;49.10;22.10;;;;;;;6.28;100.00;101384.50;5035553;28;20040;-72
2020/12/02 08:11:56;;;;;;;50.67;22.52;;;;;;;6.28;100.00;101389.81;5029243;28;20030;-72
2020/12/02 08:14:29;;;;;;;51.60;22.02;;;;;;;6.32;100.00;101379.91;5039580;28;20112;-72
2020/12/02 08:17:15;;;;;;;49.22;21.58;;;;;;;6.34;100.00;101381.59;5033170;28;20038;-72
2020/12/02 08:19:43;;;;;;;49.97;22.52;;;;;;;6.28;100.00;101376.50;5026041;28;20034;-74
2020/12/02 08:22:20;;;;;;;55.13;22.88;;;;;;;6.46;100.00;101380.28;5027588;28;20033;-72
2020/12/02 08:24:46;;;;;;;51.45;20.67;;;;;;;6.41;100.00;101380.47;5029912;28;20041;-72
2020/12/02 08:27:14;;;;;;;48.80;19.92;;;;;;;6.37;100.00;101378.81;5034217;28;20079;-72
2020/12/02 08:29:48;;;;;;;40.92;19.45;;;;;;;6.45;100.00;101382.06;5032036;28;20041;-72
2020/12/02 08:32:19;;;;;;;40.22;19.17;;;;;;;6.35;100.00;101378.00;5036930;28;20073;-72
2020/12/02 08:34:44;;;;;;;34.25;17.60;;;;;;;6.28;100.00;101384.50;5031576;28;20048;-72
2020/12/02 08:37:09;;;;;;;39.05;17.92;;;;;;;6.32;100.00;101374.56;5034609;28;20438;-72
2020/12/02 08:39:36;;;;;;;40.42;16.90;;;;;;;6.22;100.00;101379.38;5033493;28;20048;-72
2020/12/02 08:42:02;;;;;;;44.25;16.92;;;;;;;6.27;100.00;101382.75;5029382;28;20076;-72
2020/12/02 08:44:27;;;;;;;46.20;19.13;;;;;;;6.27;100.00;101372.09;5027175;28;20022;-71
2020/12/02 08:46:59;;;;;;;44.47;18.02;;;;;;;6.24;100.00;101376.63;5026193;28;20607;-72
2020/12/02 08:49:29;;;;;;;47.85;18.98;;;;;;;6.13;100.00;101366.38;5037163;28;20124;-72
2020/12/02 08:51:54;;;;;;;52.05;20.33;;;;;;;6.14;100.00;101362.78;5032030;28;20025;-72
2020/12/02 08:54:22;;;;;;;49.75;20.73;;;;;;;6.16;100.00;101358.28;5022827;28;20468;-72
2020/12/02 08:56:48;;;;;;;52.67;21.02;;;;;;;6.16;100.00;101355.59;5028816;28;20039;-72
2020/12/02 08:59:14;;;;;;;51.80;21.80;;;;;;;6.11;100.00;101357.53;5030907;28;20057;-72
2020/12/02 09:01:40;;;;;;;48.75;20.75;;;;;;;6.13;100.00;101353.03;5035719;28;20037;-72
2020/12/02 09:04:06;;;;;;;47.47;20.55;;;;;;;6.13;100.00;101349.50;5029830;28;20079;-72
2020/12/02 09:06:32;;;;;;;41.60;18.10;;;;;;;6.14;100.00;101349.44;5033211;28;20432;-72
2020/12/02 09:08:57;;;;;;;45.33;21.52;;;;;;;6.19;100.00;101347.47;5044498;28;20037;-72
2020/12/02 09:11:29;;;;;;;56.10;24.00;;;;;;;6.23;100.00;101341.13;5030136;28;20353;-71
2020/12/02 09:13:55;;;;;;;47.80;22.63;;;;;;;6.22;100.00;101339.41;5024469;28;20040;-72
2020/12/02 09:16:31;;;;;;;51.72;21.60;;;;;;;6.21;100.00;101348.31;5034534;28;20037;-72
2020/12/02 09:18:58;;;;;;;44.50;18.98;;;;;;;6.26;100.00;101349.00;5030180;28;20435;-71
2020/12/02 09:21:25;;;;;;;33.65;15.88;;;;;;;6.21;100.00;101342.97;5031497;28;20037;-72
2020/12/02 09:23:51;;;;;;;34.22;16.30;;;;;;;6.21;100.00;101344.78;5029988;28;20076;-72
2020/12/02 09:26:19;;;;;;;34.67;15.57;;;;;;;6.23;100.00;101337.59;5037205;28;20053;-72
2020/12/02 09:28:45;;;;;;;32.70;15.45;;;;;;;6.28;100.00;101341.84;5027114;28;20120;-71
2020/12/02 09:31:11;;;;;;;35.10;16.02;;;;;;;6.17;100.00;101333.38;5034270;28;20660;-71
2020/12/02 09:33:36;;;;;;;34.15;17.35;;;;;;;6.20;100.00;101327.03;5029589;28;20065;-72
2020/12/02 09:36:02;;;;;;;37.03;16.63;;;;;;;6.07;100.00;101326.59;5025340;28;20024;-72
2020/12/02 09:38:28;;;;;;;41.05;17.20;;;;;;;6.21;100.00;101324.31;5029109;28;20795;-71
2020/12/02 09:40:54;;;;;;;39.47;18.42;;;;;;;6.16;100.00;101320.97;5028944;28;20541;-72
2020/12/02 09:43:47;;;;;;;42.90;20.67;;;;;;;6.18;100.00;101324.41;5034409;28;20424;-71
2020/12/02 09:46:17;;;;;;;46.10;21.17;;;;;;;6.25;100.00;101325.94;5037305;28;20032;-72
2020/12/02 09:48:43;;;;;;;44.83;20.42;;;;;;;6.12;100.00;101321.09;5025774;28;20435;-72
2020/12/02 09:51:30;;;;;;;38.95;18.17;;;;;;;6.11;100.00;101314.91;5029839;28;20052;-72
2020/12/02 09:53:56;;;;;;;49.50;21.70;;;;;;;6.26;100.00;101309.03;5028803;28;20056;-72
2020/12/02 09:56:25;;;;;;;47.47;21.55;;;;;;;6.27;100.00;101312.56;5028869;28;20464;-71
2020/12/02 09:58:50;;;;;;;51.08;21.90;;;;;;;6.25;100.00;101306.41;5027582;28;20046;-71
2020/12/02 10:01:40;;;;;;;39.95;19.38;;;;;;;6.32;100.00;101303.47;5033069;28;20044;-71
2020/12/02 10:04:38;;;;;;;37.70;19.00;;;;;;;6.19;100.00;101301.28;5028193;28;20063;-72
2020/12/02 10:07:26;;;;;;;43.25;22.02;;;;;;;6.24;100.00;101296.66;5024231;28;20037;-72
2020/12/02 10:10:21;;;;;;;46.80;20.63;;;;;;;6.27;100.00;101292.09;5031581;28;20036;-71
2020/12/02 10:13:03;;;;;;;53.40;20.80;;;;;;;6.19;100.00;101298.63;5027156;28;20047;-71
2020/12/02 10:15:39;;;;;;;48.15;19.52;;;;;;;6.17;100.00;101290.72;5029520;28;20029;-71
2020/12/02 10:18:18;;;;;;;51.08;21.25;;;;;;;6.05;100.00;101283.13;5032647;28;20072;-72
2020/12/02 10:20:47;;;;;;;57.65;19.10;;;;;;;6.15;100.00;101281.03;5032193;28;20064;-71
2020/12/02 10:23:54;;;;;;;47.35;19.08;;;;;;;6.00;100.00;101287.78;5025054;28;20153;-71
2020/12/02 10:26:31;;;;;;;51.13;20.23;;;;;;;6.02;100.00;101285.94;5028204;28;20385;-72
2020/12/02 10:29:07;;;;;;;46.95;19.48;;;;;;;6.07;100.00;101278.63;5034345;28;20029;-71
2020/12/02 10:32:00;;;;;;;46.67;19.80;;;;;;;6.04;100.00;101268.09;5030633;28;20391;-71
2020/12/02 10:34:30;;;;;;;44.78;20.92;;;;;;;6.09;100.00;101271.47;5024821;28;20098;-72
2020/12/02 10:37:15;;;;;;;50.30;22.27;;;;;;;6.05;100.00;101264.50;5030690;28;20033;-72
2020/12/02 10:39:41;;;;;;;46.60;19.55;;;;;;;6.07;100.00;101251.97;5030710;28;20025;-72
2020/12/02 10:42:24;;;;;;;56.67;21.73;;;;;;;6.12;100.00;101257.13;5026757;28;20399;-72
2020/12/02 10:45:04;;;;;;;50.67;22.75;;;;;;;6.12;100.00;101243.81;5031943;28;20037;-72
2020/12/02 10:48:00;;;;;;;52.90;23.45;;;;;;;6.20;100.00;101231.94;5024621;28;20412;-72
2020/12/02 10:50:30;;;;;;;50.33;22.52;;;;;;;6.21;100.00;101238.16;5022447;28;20034;-71
2020/12/02 10:52:57;;;;;;;50.78;23.52;;;;;;;6.16;100.00;101235.66;5029402;28;20044;-71
2020/12/02 10:55:33;;;;;;;51.70;22.50;;;;;;;6.24;100.00;101232.69;5027448;28;20029;-72
2020/12/02 10:58:00;;;;;;;47.42;20.33;;;;;;;6.20;100.00;101226.63;5027966;28;20037;-71
2020/12/02 11:00:27;;;;;;;53.88;22.38;;;;;;;6.15;100.00;101220.59;5033301;28;20037;-72
2020/12/02 11:03:17;;;;;;;51.10;23.63;;;;;;;6.25;100.00;101218.44;5032379;28;20033;-72
2020/12/02 11:06:21;;;;;;;49.45;22.50;;;;;;;6.39;100.00;101216.09;5028187;28;20033;-71
2020/12/02 11:09:02;;;;;;;52.38;22.52;;;;;;;6.32;100.00;101217.28;5027754;28;20072;-71
2020/12/02 11:11:30;;;;;;;56.35;23.25;;;;;;;6.30;100.00;101200.47;5025259;28;20110;-72
2020/12/02 11:14:10;;;;;;;50.00;22.75;;;;;;;6.21;100.00;101198.16;5030529;28;20034;-72
2020/12/02 11:16:56;;;;;;;49.15;21.90;;;;;;;6.29;100.00;101198.75;5028649;28;20033;-71
2020/12/02 11:19:51;;;;;;;40.53;20.88;;;;;;;6.29;100.00;101191.63;5062051;28;20427;-72
2020/12/02 11:22:35;;;;;;;49.00;22.52;;;;;;;6.25;100.00;101187.31;5024451;28;20041;-72
2020/12/02 11:25:13;;;;;;;47.85;22.55;;;;;;;6.29;100.00;101188.97;5027978;28;20087;-72
2020/12/02 11:27:40;;;;;;;47.33;22.42;;;;;;;6.25;100.00;101187.31;5027030;28;20069;-72
2020/12/02 11:30:29;;;;;;;48.05;23.38;;;;;;;6.24;100.00;101195.38;5031809;28;20045;-72
2020/12/02 11:33:10;;;;;;;49.55;23.85;;;;;;;6.26;100.00;101191.72;5042151;28;20742;-72